aviador You're here:

KDDC Decoded Metar

DODGE CITY in KS, USA
Report Time2017-11-20 20:52:00
UTC Time2017-11-20 21:16:44
Flight Rules vfr VFR
Wind210° at 12 kt
W.Decomp.*RWY 20: 12.0 kt HW 0.4 kt RCW
RWY 14: 5.6 kt HW 10.6 kt RCW
W.Rank210° ranks 8
Current wind is above 210° avg. (11.1)
Visibility9999 m
Phenomena:N/A
Clouds:N/A
Expected CloudBase > 10,400 ft AGL from Temp-Dew spread
CeilingNone
Temp19°C (ISA +9)
Dew Point-7°C (17% RH)
AAT11.9°C
QNH1007 hPa
Density Alt3,911 ft
Elevation2,589 ft
Report Wrong Elevation
Raw Report
KDDC 202052Z AUTO 21012KT 10SM CLR 19/M07 A2975 RMK AO2 SLP065
T01941067 56019=

Extra information for KDDC:More info

Metar Taf Metar & Taf Last 4 Metars F.Rules Stats Wind Profile Meteogram Temp Stats Airport Information Weather charts Add Link Nearby VenuesMetar ALERT Operation Metar Decoded Social comments

AIRNAV info for KDDC